KBWD/BWD METAR and TAF weather

Enter ICAO airport designator
Station Type Date Time Source
KBWD METAR 2019/08/25 14:35 UTC NOAA

KBWD 251435Z AUTO 18005KT 10SM CLR 27/23 A2993 RMK AO1


Station Type Date Time Source
KBWD Decoded METAR 2019/08/25 14:35 UTC NOAA

Station name not available
Aug 25, 2019 - 10:35 AM EDT / 2019.08.25 1435 UTC
Wind: from the S (180 degrees) at 6 MPH (5 KT):0
Visibility: 10 mile(s):0
Sky conditions: clear
Temperature: 80 F (27 C)
Dew Point: 73 F (23 C)
Relative Humidity: 78%
Pressure (altimeter): 29.93 in. Hg (1013 hPa)
ob: KBWD 251435Z AUTO 18005KT 10SM CLR 27/23 A2993 RMK AO1
cycle: 14

Station Type Date Time Source
KBWD TAF UTC NOAA

Error!

Example: see airport list